Time;durP1;ratioP1;P1;durP2;ratioP2;P2;SDS_P1;SDS_P2;PMS_P1;PMS_P2;Temp;Humidity;BMP_temperature;BMP_pressure;BME280_temperature;BME280_humidity;BME280_pressure;Samples;Min_cycle;Max_cycle;Signal;HPM_P1;HPM_P2
2023/03/25 00:00:23;;;;;;;4.83;0.67;;;;;;;13.26;58.08;99814.22;5054354;28;20208;-69
2023/03/25 00:02:52;;;;;;;3.80;0.80;;;;;;;13.21;57.38;99811.25;5054610;28;20682;-67
2023/03/25 00:05:22;;;;;;;3.00;0.67;;;;;;;13.09;57.54;99817.00;5056301;28;20215;-71
2023/03/25 00:07:52;;;;;;;3.47;1.00;;;;;;;13.08;57.50;99814.53;5055457;28;20541;-67
2023/03/25 00:10:20;;;;;;;3.53;0.83;;;;;;;13.01;57.49;99802.94;5053726;28;20297;-67
2023/03/25 00:12:47;;;;;;;3.57;0.80;;;;;;;13.00;57.86;99810.09;5054901;28;20199;-68
2023/03/25 00:15:16;;;;;;;2.60;0.80;;;;;;;13.04;58.08;99811.38;5054297;28;20237;-68
2023/03/25 00:17:44;;;;;;;3.63;0.60;;;;;;;13.04;58.10;99816.72;5054323;28;21029;-69
2023/03/25 00:20:13;;;;;;;4.00;1.00;;;;;;;13.08;58.08;99823.34;5054152;28;20755;-68
2023/03/25 00:22:42;;;;;;;3.20;0.87;;;;;;;13.05;57.93;99817.53;5054144;28;20204;-68
2023/03/25 00:25:15;;;;;;;4.90;0.90;;;;;;;13.06;58.19;99816.53;5054952;28;20239;-69
2023/03/25 00:27:45;;;;;;;3.97;0.80;;;;;;;13.06;57.72;99816.53;5056320;28;20204;-70
2023/03/25 00:30:15;;;;;;;4.47;1.17;;;;;;;13.01;58.02;99814.44;5055529;28;20320;-69
2023/03/25 00:32:44;;;;;;;5.73;0.80;;;;;;;12.93;58.25;99808.34;5056559;28;20595;-70
2023/03/25 00:35:18;;;;;;;4.07;0.53;;;;;;;12.87;58.71;99801.88;5055107;28;20207;-67
2023/03/25 00:37:46;;;;;;;4.43;1.00;;;;;;;12.79;58.93;99809.94;5053952;28;20244;-69
2023/03/25 00:40:14;;;;;;;4.73;0.80;;;;;;;12.77;58.93;99815.44;5056342;28;20197;-69
2023/03/25 00:42:43;;;;;;;3.10;0.90;;;;;;;12.85;59.03;99817.19;5057004;28;20211;-69
2023/03/25 00:45:11;;;;;;;5.93;0.87;;;;;;;12.86;58.90;99823.34;5056971;28;20216;-68
2023/03/25 00:47:40;;;;;;;4.40;0.70;;;;;;;12.81;58.89;99821.22;5055334;28;20216;-68
2023/03/25 00:50:08;;;;;;;3.87;0.90;;;;;;;12.85;59.00;99821.69;5057359;28;20353;-69
2023/03/25 00:52:37;;;;;;;3.83;0.93;;;;;;;12.86;59.08;99824.16;5053800;28;20583;-70
2023/03/25 00:55:07;;;;;;;4.23;0.70;;;;;;;12.89;59.02;99810.53;5051601;28;20335;-68
2023/03/25 00:57:35;;;;;;;5.63;0.97;;;;;;;12.93;58.75;99819.00;5051485;28;20239;-69
2023/03/25 01:00:06;;;;;;;8.37;0.90;;;;;;;12.96;58.31;99818.59;5052147;28;20304;-69
2023/03/25 01:02:34;;;;;;;5.80;0.83;;;;;;;12.93;58.66;99811.81;5052479;28;20222;-69
2023/03/25 01:05:03;;;;;;;3.57;0.80;;;;;;;12.98;58.47;99817.44;5055316;28;20214;-69
2023/03/25 01:07:31;;;;;;;5.13;0.90;;;;;;;12.93;58.49;99811.00;5054617;28;20227;-70
2023/03/25 01:10:01;;;;;;;6.67;0.80;;;;;;;12.99;58.41;99811.09;5055486;28;21719;-68
2023/03/25 01:12:29;;;;;;;5.67;0.67;;;;;;;12.95;58.42;99803.66;5053255;28;20208;-66
2023/03/25 01:14:57;;;;;;;6.50;0.83;;;;;;;12.92;58.19;99817.31;5055157;28;20711;-69
2023/03/25 01:17:24;;;;;;;3.27;0.70;;;;;;;12.96;58.08;99802.63;5054546;28;20216;-68
2023/03/25 01:19:52;;;;;;;6.07;1.00;;;;;;;12.92;59.13;99807.50;5052190;28;20751;-68
2023/03/25 01:22:20;;;;;;;4.60;1.07;;;;;;;12.81;61.52;99816.75;5054191;28;20216;-69
2023/03/25 01:24:47;;;;;;;2.43;0.60;;;;;;;12.74;62.69;99807.00;5055670;28;20207;-68
2023/03/25 01:27:17;;;;;;;3.17;0.50;;;;;;;12.72;63.56;99806.34;5056447;28;20617;-69
2023/03/25 01:29:45;;;;;;;2.23;0.70;;;;;;;12.80;63.78;99811.59;5055073;28;20207;-68
2023/03/25 01:32:12;;;;;;;4.93;0.87;;;;;;;12.90;63.05;99809.53;5053347;28;20920;-68
2023/03/25 01:34:41;;;;;;;5.53;0.80;;;;;;;12.93;62.71;99803.81;5056338;28;20215;-68
2023/03/25 01:37:09;;;;;;;3.43;0.90;;;;;;;12.88;62.79;99800.06;5054760;28;20204;-69
2023/03/25 01:39:37;;;;;;;3.33;0.73;;;;;;;12.81;62.82;99803.44;5056066;28;20716;-71
2023/03/25 01:42:05;;;;;;;5.50;0.83;;;;;;;12.73;62.42;99818.63;5053511;28;20213;-68
2023/03/25 01:45:19;;;;;;;2.80;0.70;;;;;;;12.74;62.68;99814.97;5057622;28;20227;-69
2023/03/25 01:47:51;;;;;;;1.70;0.37;;;;;;;12.58;63.85;99820.38;5020108;28;20214;-68
2023/03/25 01:50:20;;;;;;;2.40;0.63;;;;;;;12.50;64.53;99823.94;5054136;28;20250;-68
2023/03/25 01:52:52;;;;;;;2.20;0.40;;;;;;;12.35;65.05;99820.38;5054394;28;20211;-70
2023/03/25 01:55:22;;;;;;;2.50;0.50;;;;;;;12.11;65.10;99812.53;5052360;28;20204;-67
2023/03/25 01:57:54;;;;;;;1.87;0.80;;;;;;;12.00;65.48;99808.44;5050608;28;20203;-69
2023/03/25 02:00:22;;;;;;;0.83;0.20;;;;;;;11.80;65.61;99783.28;5051521;28;20291;-69
2023/03/25 02:02:53;;;;;;;2.50;0.30;;;;;;;11.68;65.78;99786.28;5051648;28;20225;-68
2023/03/25 02:05:26;;;;;;;2.27;0.23;;;;;;;11.64;66.05;99774.34;5044766;28;20208;-68
2023/03/25 02:07:56;;;;;;;0.67;0.20;;;;;;;11.69;66.16;99772.03;5052694;28;20238;-69
2023/03/25 02:10:24;;;;;;;1.57;0.20;;;;;;;11.78;65.82;99764.88;5053376;28;20234;-68
2023/03/25 02:12:55;;;;;;;1.30;0.27;;;;;;;11.85;65.37;99762.34;5052145;28;20307;-67
2023/03/25 02:15:22;;;;;;;0.77;0.50;;;;;;;11.86;65.37;99761.34;5054029;28;20215;-68
2023/03/25 02:18:20;;;;;;;1.93;0.20;;;;;;;11.82;65.35;99768.00;5054491;28;20206;-68
2023/03/25 02:21:17;;;;;;;0.83;0.20;;;;;;;11.73;65.50;99761.03;5054704;28;20198;-69
2023/03/25 02:24:12;;;;;;;1.83;0.27;;;;;;;11.65;65.65;99765.38;5046003;28;20580;-69
2023/03/25 02:27:13;;;;;;;0.30;0.10;;;;;;;11.58;65.37;99768.91;5051287;28;20217;-68
2023/03/25 02:30:10;;;;;;;0.43;0.20;;;;;;;11.40;66.35;99773.59;5056302;28;20209;-68
2023/03/25 02:33:12;;;;;;;1.83;0.30;;;;;;;11.34;66.64;99784.91;5053820;28;20204;-69
2023/03/25 02:35:57;;;;;;;1.00;0.30;;;;;;;11.29;66.80;99788.06;5054240;28;20567;-68
2023/03/25 02:38:39;;;;;;;1.90;0.23;;;;;;;11.23;66.77;99783.44;5052291;28;20276;-69
2023/03/25 02:41:13;;;;;;;0.40;0.17;;;;;;;11.39;65.40;99786.03;5052247;28;20212;-69
2023/03/25 02:43:47;;;;;;;1.67;0.20;;;;;;;11.34;65.30;99782.25;5053125;28;20201;-69
2023/03/25 02:46:17;;;;;;;0.73;0.20;;;;;;;11.45;65.03;99789.84;5053834;28;20218;-69
2023/03/25 02:48:53;;;;;;;0.93;0.30;;;;;;;11.45;64.51;99790.66;5055364;28;20220;-68
2023/03/25 02:51:25;;;;;;;2.50;0.20;;;;;;;11.32;64.80;99798.34;5051327;28;20691;-69
2023/03/25 02:53:56;;;;;;;1.97;0.10;;;;;;;11.37;64.81;99796.00;5054472;28;20902;-68
2023/03/25 02:56:26;;;;;;;2.53;0.23;;;;;;;11.41;64.45;99801.81;5054820;28;20203;-68
2023/03/25 02:58:56;;;;;;;0.77;0.20;;;;;;;11.41;64.20;99799.97;5053458;28;20214;-68
2023/03/25 03:01:25;;;;;;;1.00;0.20;;;;;;;11.46;63.69;99796.81;5053649;28;20256;-69
2023/03/25 03:03:54;;;;;;;0.30;0.20;;;;;;;11.35;64.48;99797.97;5054011;28;20209;-68
2023/03/25 03:06:24;;;;;;;1.57;0.20;;;;;;;11.44;64.50;99783.69;5049256;28;20213;-69
2023/03/25 03:09:12;;;;;;;2.23;0.47;;;;;;;11.46;63.95;99794.97;5049370;28;20245;-69
2023/03/25 03:11:51;;;;;;;2.93;0.20;;;;;;;11.38;64.26;99794.16;5051184;28;20227;-68
2023/03/25 03:14:33;;;;;;;1.33;0.40;;;;;;;11.34;64.24;99793.69;5051394;28;20212;-68
2023/03/25 03:17:08;;;;;;;1.70;0.40;;;;;;;11.32;64.62;99785.06;5054450;28;20217;-69
2023/03/25 03:19:40;;;;;;;1.87;0.40;;;;;;;11.36;64.32;99791.69;5053880;28;20216;-68
2023/03/25 03:22:20;;;;;;;2.50;0.60;;;;;;;11.39;64.35;99780.72;5051893;28;20777;-68
2023/03/25 03:24:54;;;;;;;3.20;0.30;;;;;;;11.28;64.66;99786.38;5056277;28;20204;-69
2023/03/25 03:27:32;;;;;;;6.37;0.60;;;;;;;11.28;65.20;99795.19;5055230;28;20254;-68
2023/03/25 03:30:06;;;;;;;2.87;0.47;;;;;;;11.35;65.33;99794.50;5057962;28;21849;-67
2023/03/25 03:32:42;;;;;;;4.63;0.70;;;;;;;11.49;64.67;99797.31;5057482;28;20213;-69
2023/03/25 03:35:15;;;;;;;4.60;0.50;;;;;;;11.48;64.75;99800.94;5052425;28;20216;-69
2023/03/25 03:37:47;;;;;;;4.97;0.60;;;;;;;11.47;64.64;99796.63;5057436;28;20241;-69
2023/03/25 03:40:19;;;;;;;1.30;0.50;;;;;;;11.48;64.58;99800.94;5056560;28;21241;-69
2023/03/25 03:42:53;;;;;;;3.47;0.40;;;;;;;11.43;64.90;99805.97;5058069;28;20224;-69
2023/03/25 03:45:28;;;;;;;4.13;0.93;;;;;;;11.46;64.78;99802.94;5056869;28;20308;-69
2023/03/25 03:48:00;;;;;;;3.37;0.60;;;;;;;11.48;64.78;99808.09;5055183;28;20213;-68
2023/03/25 03:50:31;;;;;;;2.30;0.60;;;;;;;11.43;65.12;99803.31;5054506;28;20534;-68
2023/03/25 03:53:04;;;;;;;2.00;0.40;;;;;;;11.44;65.38;99798.78;5053486;28;20226;-68
2023/03/25 03:55:39;;;;;;;3.80;0.40;;;;;;;11.45;65.07;99797.78;5054272;28;20216;-69
2023/03/25 03:58:14;;;;;;;3.33;0.90;;;;;;;11.47;64.22;99804.59;5057499;28;20257;-68
2023/03/25 04:00:48;;;;;;;4.93;0.70;;;;;;;11.47;64.29;99804.59;5055858;28;20209;-68
2023/03/25 04:03:23;;;;;;;3.57;1.20;;;;;;;11.40;64.66;99819.56;5052915;28;20214;-68
2023/03/25 04:05:57;;;;;;;4.40;0.63;;;;;;;11.49;63.71;99815.88;5054832;28;20235;-68
2023/03/25 04:08:30;;;;;;;3.30;0.60;;;;;;;11.51;63.04;99816.56;5053876;28;20611;-68
2023/03/25 04:11:06;;;;;;;3.77;0.40;;;;;;;11.49;62.88;99823.03;5051841;28;20216;-68
2023/03/25 04:13:38;;;;;;;2.37;0.40;;;;;;;11.51;62.79;99818.38;5053633;28;21027;-68
2023/03/25 04:16:07;;;;;;;2.27;0.43;;;;;;;11.54;62.81;99829.47;5053149;28;20230;-69
2023/03/25 04:18:35;;;;;;;5.77;1.17;;;;;;;11.61;62.15;99827.78;5055832;28;20210;-69
2023/03/25 04:21:03;;;;;;;2.33;0.77;;;;;;;11.59;62.02;99824.50;5055689;28;20230;-69
2023/03/25 04:23:32;;;;;;;5.10;1.10;;;;;;;11.61;62.24;99817.16;5054153;28;20221;-68
2023/03/25 04:26:02;;;;;;;2.43;0.50;;;;;;;11.63;62.08;99819.66;5055192;28;20207;-69
2023/03/25 04:28:30;;;;;;;4.10;0.70;;;;;;;11.61;62.13;99826.97;5055913;28;20214;-68
2023/03/25 04:30:59;;;;;;;2.33;0.60;;;;;;;11.53;62.26;99829.63;5054775;28;20235;-68
2023/03/25 04:33:28;;;;;;;3.43;0.60;;;;;;;11.46;62.50;99824.19;5054929;28;20228;-67
2023/03/25 04:35:56;;;;;;;3.40;0.43;;;;;;;11.42;62.62;99830.84;5052906;28;20236;-67
2023/03/25 04:38:24;;;;;;;4.33;1.47;;;;;;;11.46;62.33;99832.16;5050273;28;20252;-68
2023/03/25 04:40:52;;;;;;;6.07;0.70;;;;;;;11.44;62.77;99835.97;5054183;28;20680;-68
2023/03/25 04:43:21;;;;;;;4.57;0.70;;;;;;;11.53;62.80;99838.44;5054567;28;20348;-70
2023/03/25 04:45:52;;;;;;;7.17;0.93;;;;;;;11.54;62.79;99850.72;5056030;28;20233;-68
2023/03/25 04:48:24;;;;;;;4.43;0.70;;;;;;;11.51;63.29;99837.78;5056412;28;20319;-68
2023/03/25 04:50:54;;;;;;;3.43;0.80;;;;;;;11.45;63.58;99842.94;5054001;28;20212;-68
2023/03/25 04:53:22;;;;;;;2.80;0.87;;;;;;;11.46;63.66;99842.75;5054083;28;20333;-68
2023/03/25 04:55:50;;;;;;;3.50;0.60;;;;;;;11.49;63.51;99853.06;5057494;28;20206;-69
2023/03/25 04:58:18;;;;;;;3.73;0.93;;;;;;;11.58;63.44;99848.56;5057224;28;20710;-68
2023/03/25 05:00:50;;;;;;;7.13;1.07;;;;;;;11.58;63.36;99848.56;5059323;28;20664;-68
2023/03/25 05:03:22;;;;;;;3.83;1.13;;;;;;;11.57;63.75;99852.22;5051267;28;20242;-67
2023/03/25 05:05:51;;;;;;;3.70;1.10;;;;;;;11.59;63.65;99845.75;5052823;28;20249;-68
2023/03/25 05:08:20;;;;;;;4.00;0.70;;;;;;;11.61;63.82;99859.66;5055382;28;20793;-68
2023/03/25 05:10:48;;;;;;;5.87;0.70;;;;;;;11.65;63.98;99855.66;5055221;28;20725;-68
2023/03/25 05:13:17;;;;;;;3.30;0.67;;;;;;;11.64;64.14;99856.66;5055522;28;20242;-68
2023/03/25 05:15:45;;;;;;;3.03;0.60;;;;;;;11.73;63.85;99840.72;5054161;28;20311;-69
2023/03/25 05:18:15;;;;;;;5.87;0.90;;;;;;;11.58;64.08;99852.03;5056020;28;20208;-68
2023/03/25 05:20:45;;;;;;;3.20;0.70;;;;;;;11.50;64.33;99843.25;5054710;28;20863;-69
2023/03/25 05:23:16;;;;;;;3.27;0.80;;;;;;;11.49;64.28;99850.41;5054690;28;20567;-68
2023/03/25 05:25:46;;;;;;;3.90;0.67;;;;;;;11.50;64.25;99860.03;5051266;28;20592;-65
2023/03/25 05:28:14;;;;;;;4.30;0.97;;;;;;;11.40;64.74;99864.69;5050495;28;20214;-69
2023/03/25 05:30:46;;;;;;;3.10;0.60;;;;;;;11.40;64.12;99870.00;5050773;28;20221;-69
2023/03/25 05:33:17;;;;;;;1.80;0.50;;;;;;;11.48;63.84;99877.94;5053855;28;20230;-69
2023/03/25 05:35:46;;;;;;;3.63;0.73;;;;;;;11.56;63.58;99879.75;5052435;28;20219;-69
2023/03/25 05:38:17;;;;;;;4.47;0.53;;;;;;;11.63;63.30;99873.59;5043210;28;20611;-69
2023/03/25 05:40:46;;;;;;;3.03;0.93;;;;;;;11.68;63.04;99875.75;5031537;28;20211;-68
2023/03/25 05:43:14;;;;;;;4.47;1.10;;;;;;;11.70;63.30;99884.38;5032506;28;21108;-68
2023/03/25 05:45:43;;;;;;;6.60;1.30;;;;;;;11.68;63.16;99881.91;5031181;28;20646;-67
2023/03/25 05:48:11;;;;;;;6.10;0.87;;;;;;;11.69;62.90;99891.53;5031202;28;20249;-69
2023/03/25 05:50:41;;;;;;;6.17;1.00;;;;;;;11.68;62.97;99887.22;5033973;28;20264;-68
2023/03/25 05:53:11;;;;;;;3.60;0.80;;;;;;;11.79;62.80;99882.53;5030177;28;20890;-69
2023/03/25 05:55:39;;;;;;;7.07;0.97;;;;;;;11.80;62.77;99892.19;5032889;28;20209;-69
2023/03/25 05:58:06;;;;;;;3.70;0.90;;;;;;;11.78;62.87;99887.06;5032036;28;20209;-70
2023/03/25 06:00:35;;;;;;;7.37;1.00;;;;;;;11.79;62.79;99887.84;5030565;28;20218;-68
2023/03/25 06:03:06;;;;;;;5.23;1.30;;;;;;;11.74;63.28;99896.31;5030760;28;20558;-70
2023/03/25 06:05:35;;;;;;;5.20;0.90;;;;;;;11.82;62.74;99906.13;5031622;28;20202;-70
2023/03/25 06:08:04;;;;;;;6.37;1.30;;;;;;;11.89;62.28;99892.00;5032216;28;20744;-69
2023/03/25 06:10:33;;;;;;;6.80;1.30;;;;;;;11.89;62.46;99896.47;5030634;28;20216;-70
2023/03/25 06:13:00;;;;;;;7.10;1.10;;;;;;;11.92;62.50;99893.47;5030691;28;20231;-70
2023/03/25 06:15:32;;;;;;;14.27;1.80;;;;;;;11.92;62.25;99896.97;5031962;28;20212;-68
2023/03/25 06:18:03;;;;;;;5.47;1.07;;;;;;;11.96;62.29;99902.78;5031248;28;20209;-69
2023/03/25 06:20:32;;;;;;;7.47;1.57;;;;;;;11.91;62.10;99907.75;5033427;28;20216;-68
2023/03/25 06:23:01;;;;;;;8.43;1.63;;;;;;;11.84;62.65;99897.00;5032792;28;20597;-69
2023/03/25 06:25:31;;;;;;;13.30;1.53;;;;;;;11.85;62.99;99900.47;5032257;28;20211;-69
2023/03/25 06:28:02;;;;;;;8.90;1.40;;;;;;;11.86;62.97;99916.25;5033740;28;20238;-68
2023/03/25 06:30:30;;;;;;;8.93;1.40;;;;;;;11.91;62.71;99915.72;5032653;28;20211;-69
2023/03/25 06:33:01;;;;;;;8.27;1.30;;;;;;;11.90;62.33;99932.66;5030842;28;20220;-68
2023/03/25 06:35:30;;;;;;;8.90;1.47;;;;;;;11.85;61.98;99929.72;5031233;28;20681;-68
2023/03/25 06:37:57;;;;;;;11.67;2.07;;;;;;;11.79;62.18;99930.34;5032432;28;20248;-68
2023/03/25 06:40:25;;;;;;;8.50;1.70;;;;;;;11.82;62.30;99924.72;5030035;28;20214;-68
2023/03/25 06:42:54;;;;;;;10.70;1.77;;;;;;;11.93;62.23;99921.72;5028954;28;21984;-67
2023/03/25 06:45:22;;;;;;;5.63;1.50;;;;;;;11.91;62.28;99921.03;5030574;28;20215;-68
2023/03/25 06:47:49;;;;;;;10.60;1.83;;;;;;;11.93;62.17;99924.38;5030024;28;20220;-68
2023/03/25 06:50:17;;;;;;;8.03;2.07;;;;;;;12.08;61.71;99917.34;5032478;28;20215;-69
2023/03/25 06:52:45;;;;;;;12.73;1.77;;;;;;;12.17;61.56;99915.50;5034843;28;20608;-67
2023/03/25 06:55:13;;;;;;;10.73;1.73;;;;;;;12.28;61.35;99905.31;5034540;28;20208;-68
2023/03/25 06:57:42;;;;;;;13.57;2.47;;;;;;;12.34;61.44;99914.41;5028745;28;20212;-68
2023/03/25 07:00:12;;;;;;;9.88;1.92;;;;;;;12.55;60.47;99911.19;5034257;28;20526;-64
2023/03/25 07:02:39;;;;;;;8.80;1.50;;;;;;;12.49;60.02;99918.00;5033436;28;20216;-64
2023/03/25 07:05:08;;;;;;;14.00;2.00;;;;;;;12.50;60.01;99914.34;5036585;28;20212;-64
2023/03/25 07:07:36;;;;;;;15.77;1.90;;;;;;;12.52;59.43;99906.19;5035676;28;20238;-64
2023/03/25 07:10:04;;;;;;;9.33;1.27;;;;;;;12.49;59.47;99893.28;5032595;28;20234;-64
2023/03/25 07:12:34;;;;;;;9.33;2.20;;;;;;;12.46;59.61;99896.25;5032605;28;20219;-63
2023/03/25 07:15:02;;;;;;;6.57;1.30;;;;;;;12.57;58.99;99901.19;5036611;28;21404;-62
2023/03/25 07:17:31;;;;;;;7.63;1.30;;;;;;;12.66;58.56;99889.50;5035120;28;20219;-63
2023/03/25 07:19:59;;;;;;;13.43;2.13;;;;;;;12.71;58.83;99884.47;5036070;28;20226;-64
2023/03/25 07:22:27;;;;;;;14.17;2.57;;;;;;;12.74;58.69;99878.81;5033652;28;20285;-64
2023/03/25 07:24:55;;;;;;;9.97;1.77;;;;;;;12.83;57.87;99877.75;5034716;28;20204;-62
2023/03/25 07:27:22;;;;;;;10.20;1.53;;;;;;;12.91;57.70;99880.38;5039047;28;20250;-64
2023/03/25 07:29:50;;;;;;;10.27;1.50;;;;;;;13.02;56.64;99869.28;5036351;28;20219;-65
2023/03/25 07:32:18;;;;;;;8.97;1.80;;;;;;;13.05;57.25;99887.56;5032399;28;20209;-64
2023/03/25 07:34:47;;;;;;;14.07;2.67;;;;;;;13.05;57.25;99876.91;5035515;28;20716;-63
2023/03/25 07:37:15;;;;;;;7.93;1.60;;;;;;;13.11;57.59;99881.50;5036766;28;20212;-64
2023/03/25 07:39:43;;;;;;;9.30;1.57;;;;;;;13.24;57.04;99880.13;5032984;28;20237;-64
2023/03/25 07:42:10;;;;;;;8.93;1.33;;;;;;;13.30;56.60;99879.41;5034214;28;20215;-64
2023/03/25 07:44:38;;;;;;;12.00;1.73;;;;;;;13.23;56.15;99868.66;5031407;28;20309;-65
2023/03/25 07:47:06;;;;;;;9.20;1.77;;;;;;;13.26;55.92;99867.47;5031851;28;20741;-64
2023/03/25 07:49:34;;;;;;;11.43;2.20;;;;;;;13.35;55.78;99863.72;5036843;28;20298;-64
2023/03/25 07:52:03;;;;;;;14.83;2.20;;;;;;;13.30;56.49;99868.75;5034041;28;20206;-64
2023/03/25 07:54:31;;;;;;;10.63;2.23;;;;;;;13.24;56.57;99864.16;5034009;28;20234;-64
2023/03/25 07:56:59;;;;;;;12.17;1.90;;;;;;;13.12;57.33;99882.34;5034836;28;20212;-64
2023/03/25 07:59:27;;;;;;;9.93;1.73;;;;;;;13.06;57.92;99877.75;5033621;28;20820;-64
2023/03/25 08:01:56;;;;;;;9.90;1.73;;;;;;;13.01;57.73;99888.13;5033962;28;20257;-66
2023/03/25 08:04:23;;;;;;;7.13;1.57;;;;;;;12.96;57.64;99885.97;5034053;28;20888;-64
2023/03/25 08:06:51;;;;;;;9.47;1.57;;;;;;;12.97;57.21;99879.66;5038251;28;20213;-66
2023/03/25 08:09:23;;;;;;;11.60;1.70;;;;;;;13.00;57.49;99889.13;5036480;28;20228;-63
2023/03/25 08:11:51;;;;;;;9.27;2.03;;;;;;;12.94;57.40;99889.81;5038270;28;20208;-65
2023/03/25 08:14:19;;;;;;;8.80;2.27;;;;;;;12.96;57.22;99893.94;5036416;28;20986;-64
2023/03/25 08:16:47;;;;;;;8.83;1.97;;;;;;;13.01;57.05;99890.78;5035619;28;20212;-64
2023/03/25 08:19:14;;;;;;;9.70;1.90;;;;;;;13.01;57.05;99880.97;5036609;28;20290;-65
2023/03/25 08:21:42;;;;;;;10.43;2.10;;;;;;;13.04;56.90;99885.91;5035858;28;20245;-65
2023/03/25 08:24:10;;;;;;;15.80;2.50;;;;;;;13.08;57.02;99886.38;5037694;28;20296;-65
2023/03/25 08:26:39;;;;;;;9.00;2.30;;;;;;;13.10;56.81;99879.88;5036677;28;20204;-64
2023/03/25 08:29:08;;;;;;;12.90;2.13;;;;;;;13.14;57.05;99886.53;5038177;28;20220;-64
2023/03/25 08:31:37;;;;;;;13.70;1.97;;;;;;;13.18;56.34;99874.53;5036307;28;20315;-64
2023/03/25 08:34:06;;;;;;;7.67;1.60;;;;;;;13.06;56.17;99867.94;5033978;28;20324;-62
2023/03/25 08:36:38;;;;;;;8.43;1.50;;;;;;;13.10;56.51;99887.03;5032384;28;20216;-62
2023/03/25 08:39:10;;;;;;;7.47;1.90;;;;;;;13.40;58.90;99882.66;5032527;28;20244;-63
2023/03/25 08:41:39;;;;;;;6.13;1.90;;;;;;;13.47;58.04;99886.25;5034486;28;20549;-63
2023/03/25 08:44:07;;;;;;;7.60;1.43;;;;;;;13.49;58.54;99881.56;5035109;28;20245;-63
2023/03/25 08:46:35;;;;;;;5.93;1.60;;;;;;;13.47;59.07;99881.75;5035496;28;20607;-64
2023/03/25 08:49:05;;;;;;;9.27;2.00;;;;;;;13.43;59.77;99877.81;5037138;28;20204;-62
2023/03/25 08:51:32;;;;;;;8.40;2.47;;;;;;;13.43;60.44;99874.31;5034839;28;20216;-63
2023/03/25 08:54:00;;;;;;;4.93;1.70;;;;;;;13.49;59.84;99879.72;5037286;28;20233;-63
2023/03/25 08:56:28;;;;;;;7.43;1.73;;;;;;;13.43;59.30;99879.63;5035592;28;20213;-64
2023/03/25 08:58:57;;;;;;;5.73;1.50;;;;;;;13.48;58.72;99872.75;5035901;28;20215;-63
2023/03/25 09:01:25;;;;;;;6.77;1.40;;;;;;;13.49;58.53;99865.59;5035220;28;20218;-63
2023/03/25 09:03:54;;;;;;;5.30;1.70;;;;;;;13.58;58.99;99861.84;5035843;28;20216;-63
2023/03/25 09:06:24;;;;;;;7.93;1.60;;;;;;;13.70;59.60;99857.72;5034187;28;20354;-63
2023/03/25 09:08:54;;;;;;;9.97;2.37;;;;;;;13.78;59.18;99854.13;5034328;28;20240;-63
2023/03/25 09:11:22;;;;;;;7.60;2.47;;;;;;;13.78;59.05;99846.97;5031000;28;21726;-62
2023/03/25 09:14:04;;;;;;;9.63;1.70;;;;;;;13.73;58.72;99849.34;5032125;28;20233;-62
2023/03/25 09:16:33;;;;;;;7.77;1.60;;;;;;;13.59;58.55;99852.84;5032748;28;20241;-63
2023/03/25 09:19:01;;;;;;;6.47;1.27;;;;;;;13.49;57.92;99873.56;5031710;28;20224;-64
2023/03/25 09:21:29;;;;;;;7.53;1.07;;;;;;;13.31;58.73;99873.06;5031311;28;20241;-63
2023/03/25 09:23:57;;;;;;;3.77;0.83;;;;;;;13.28;60.65;99866.25;5031310;28;20216;-63
2023/03/25 09:26:25;;;;;;;4.13;1.07;;;;;;;13.30;60.26;99868.75;5032228;28;20218;-62
2023/03/25 09:28:54;;;;;;;4.73;1.10;;;;;;;13.34;60.65;99868.22;5030633;28;20209;-63
2023/03/25 09:31:24;;;;;;;7.40;1.33;;;;;;;13.40;60.74;99866.66;5029094;28;20241;-63
2023/03/25 09:33:52;;;;;;;3.23;1.10;;;;;;;13.48;60.49;99853.28;5035094;28;20215;-65
2023/03/25 09:36:20;;;;;;;5.07;1.23;;;;;;;13.49;60.30;99862.91;5034220;28;20230;-63
2023/03/25 09:38:48;;;;;;;3.83;1.07;;;;;;;13.38;60.16;99863.34;5030190;28;20242;-64
2023/03/25 09:41:29;;;;;;;6.80;1.27;;;;;;;13.32;58.96;99864.91;5031813;28;20576;-63
2023/03/25 09:44:05;;;;;;;5.87;1.57;;;;;;;13.29;58.32;99862.59;5032254;28;20290;-62
2023/03/25 09:46:47;;;;;;;5.67;1.37;;;;;;;13.33;59.09;99860.41;5029281;28;20217;-63
2023/03/25 09:49:20;;;;;;;9.07;1.37;;;;;;;13.32;57.34;99872.06;5029429;28;20556;-65
2023/03/25 09:51:50;;;;;;;5.23;1.50;;;;;;;13.37;56.80;99869.72;5030586;28;20210;-63
2023/03/25 09:54:24;;;;;;;7.80;1.00;;;;;;;13.39;57.05;99878.31;5034051;28;20212;-64
2023/03/25 09:56:57;;;;;;;7.80;1.33;;;;;;;13.50;58.15;99884.06;5032468;28;20207;-64
2023/03/25 09:59:39;;;;;;;5.80;1.20;;;;;;;13.68;59.98;99880.22;5012359;28;20226;-64
2023/03/25 10:02:20;;;;;;;7.40;1.20;;;;;;;17.21;51.97;99866.41;5032766;28;20211;-64
2023/03/25 10:05:05;;;;;;;5.03;1.50;;;;;;;18.29;45.12;99856.97;5036401;28;20606;-63
2023/03/25 10:07:44;;;;;;;3.50;0.90;;;;;;;18.66;44.10;99849.97;5033313;28;20263;-63
2023/03/25 10:10:22;;;;;;;5.70;1.20;;;;;;;18.23;44.37;99846.22;5034064;28;20212;-63
2023/03/25 10:12:58;;;;;;;5.47;1.33;;;;;;;17.49;46.04;99847.44;5032409;28;20200;-62
2023/03/25 10:15:32;;;;;;;4.70;1.40;;;;;;;16.64;45.75;99852.69;5036683;28;20231;-63
2023/03/25 10:18:23;;;;;;;8.57;1.10;;;;;;;17.04;45.19;99851.75;5033972;28;20231;-62
2023/03/25 10:20:58;;;;;;;4.93;1.30;;;;;;;20.88;39.81;99846.28;5035161;28;20689;-64
2023/03/25 10:23:34;;;;;;;6.20;1.17;;;;;;;23.98;33.74;99844.13;5033876;28;20212;-63
2023/03/25 10:26:09;;;;;;;3.80;0.73;;;;;;;27.05;29.79;99844.25;5034122;28;20692;-64
2023/03/25 10:28:42;;;;;;;6.70;1.10;;;;;;;26.79;28.34;99840.66;5034310;28;20208;-63
2023/03/25 10:31:16;;;;;;;5.68;1.10;;;;;;;27.53;27.52;99840.94;5033601;28;20204;-64
2023/03/25 10:33:53;;;;;;;5.28;1.23;;;;;;;28.78;25.57;99851.72;5034589;28;20270;-64
2023/03/25 10:36:27;;;;;;;3.92;1.10;;;;;;;26.59;27.57;99839.50;5037545;28;20230;-63
2023/03/25 10:38:55;;;;;;;3.75;1.00;;;;;;;24.18;30.66;99846.31;5050481;28;20242;-63
2023/03/25 10:41:26;;;;;;;5.55;1.20;;;;;;;22.25;33.34;99853.06;5058097;28;20219;-63
2023/03/25 10:43:58;;;;;;;5.47;1.02;;;;;;;19.96;35.91;99858.25;5058016;28;20302;-63
2023/03/25 10:46:31;;;;;;;2.20;0.90;;;;;;;18.48;39.24;99862.44;5050702;28;20211;-63
2023/03/25 10:49:00;;;;;;;5.95;1.00;;;;;;;17.40;42.83;99901.44;5050479;28;20698;-63
2023/03/25 10:51:30;;;;;;;4.23;0.80;;;;;;;16.55;46.86;99911.75;5059722;28;20208;-64
2023/03/25 10:53:59;;;;;;;2.50;0.70;;;;;;;15.88;50.81;99921.47;5059165;28;20281;-64
2023/03/25 10:56:31;;;;;;;3.90;0.80;;;;;;;15.46;52.32;99907.16;5058402;28;20231;-64
2023/03/25 10:59:05;;;;;;;1.73;0.33;;;;;;;15.13;50.23;99911.38;5059356;28;20203;-63
2023/03/25 11:01:37;;;;;;;1.17;0.30;;;;;;;14.87;51.18;99914.59;5060523;28;20293;-65
2023/03/25 11:04:09;;;;;;;1.47;0.43;;;;;;;15.93;49.76;99892.28;5058116;28;20212;-63
2023/03/25 11:06:39;;;;;;;3.97;0.40;;;;;;;20.74;40.88;99891.47;5057632;28;20301;-63
2023/03/25 11:09:17;;;;;;;2.23;0.67;;;;;;;23.98;35.29;99883.94;5055827;28;20289;-64
2023/03/25 11:11:46;;;;;;;1.23;0.40;;;;;;;26.42;30.63;99863.38;5059300;28;20217;-67
2023/03/25 11:14:15;;;;;;;4.60;0.52;;;;;;;29.47;25.72;99880.69;5058946;28;20207;-62
2023/03/25 11:16:46;;;;;;;2.38;0.47;;;;;;;29.64;24.93;99891.19;5056337;28;20326;-63
2023/03/25 11:19:24;;;;;;;1.67;0.50;;;;;;;30.05;24.75;99867.03;5054648;28;20680;-63
2023/03/25 11:21:55;;;;;;;3.20;0.50;;;;;;;31.01;24.15;99890.38;5056097;28;20294;-63
2023/03/25 11:24:29;;;;;;;2.20;0.50;;;;;;;32.90;21.53;99860.28;5057822;28;20243;-62
2023/03/25 11:26:58;;;;;;;1.75;0.52;;;;;;;34.79;19.97;99838.34;5057279;28;20203;-63
2023/03/25 11:29:27;;;;;;;2.92;0.80;;;;;;;36.73;17.91;99843.06;5056010;28;20211;-63
2023/03/25 11:32:06;;;;;;;3.42;0.77;;;;;;;38.28;15.81;99854.41;5054662;28;20215;-63
2023/03/25 11:34:40;;;;;;;2.67;0.85;;;;;;;39.67;15.04;99831.53;5048950;28;20214;-63
2023/03/25 11:37:17;;;;;;;2.85;0.95;;;;;;;39.24;14.97;99832.31;5057564;28;20229;-63
2023/03/25 11:39:49;;;;;;;3.38;1.80;;;;;;;37.14;16.47;99844.16;5054300;28;20245;-63
2023/03/25 11:42:28;;;;;;;3.17;1.50;;;;;;;36.93;16.50;99828.41;5057973;28;20214;-63
2023/03/25 11:44:58;;;;;;;2.60;1.50;;;;;;;38.22;16.90;99831.69;5057691;28;20237;-63
2023/03/25 11:47:30;;;;;;;3.70;1.38;;;;;;;36.70;17.31;99845.66;5055280;28;20202;-64
2023/03/25 11:50:01;;;;;;;4.43;1.58;;;;;;;35.01;18.56;99851.94;5056539;28;20207;-63